createdAt,value
2023-07-05T06:09:06.542Z,50.00
2023-07-05T06:10:04.387Z,50.00
2023-07-05T06:11:04.426Z,50.00
2023-07-05T06:12:04.473Z,50.00
2023-07-05T06:13:04.489Z,50.00
2023-07-05T06:14:04.576Z,50.00
2023-07-05T06:15:04.575Z,0.00
2023-07-05T06:16:13.784Z,0.00
2023-07-05T06:17:05.621Z,0.00
2023-07-05T06:18:04.634Z,0.00
2023-07-05T06:19:04.559Z,0.00
2023-07-05T06:20:04.582Z,0.00
2023-07-05T06:21:04.574Z,0.00
2023-07-05T06:22:04.579Z,0.00
2023-07-05T06:23:04.554Z,0.00
2023-07-05T06:24:04.553Z,0.00
2023-07-05T06:25:04.532Z,0.00
2023-07-05T06:26:04.543Z,0.00
2023-07-05T06:27:04.516Z,0.00
2023-07-05T06:28:04.532Z,0.00
2023-07-05T06:29:04.572Z,0.00
2023-07-05T06:30:04.600Z,0.00
2023-07-05T06:31:04.654Z,0.00
2023-07-05T06:32:04.684Z,0.00
2023-07-05T06:33:04.735Z,0.00
2023-07-05T06:34:04.719Z,0.00
2023-07-05T06:35:04.752Z,0.00
2023-07-05T06:36:04.770Z,0.00
2023-07-05T06:37:04.782Z,0.00
2023-07-05T06:38:04.833Z,0.00
2023-07-05T06:39:04.854Z,0.00
2023-07-05T06:40:04.899Z,0.00
2023-07-05T06:41:04.870Z,0.00
2023-07-05T06:42:04.900Z,0.00
2023-07-05T06:43:04.943Z,0.00
2023-07-05T06:44:04.951Z,0.00
2023-07-05T06:45:04.953Z,0.00
2023-07-05T06:46:05.005Z,3.22
2023-07-05T06:47:04.966Z,20.38
2023-07-05T06:48:05.049Z,36.14
2023-07-05T06:49:05.011Z,50.00
2023-07-05T06:50:05.071Z,50.00
2023-07-05T06:51:05.046Z,50.81
2023-07-05T06:52:05.082Z,50.00
2023-07-05T06:53:23.330Z,50.00
2023-07-05T06:54:06.068Z,50.08
2023-07-05T06:55:05.057Z,47.28
2023-07-05T06:56:05.039Z,41.12
2023-07-05T06:57:05.214Z,38.82
2023-07-05T06:58:05.048Z,37.09
2023-07-05T06:59:05.002Z,52.05
2023-07-05T07:00:05.010Z,51.13
2023-07-05T07:01:05.012Z,49.65
2023-07-05T07:02:05.020Z,51.42
2023-07-05T07:03:05.044Z,50.93
2023-07-05T07:04:05.026Z,50.02
2023-07-05T07:05:05.015Z,52.42
2023-07-05T07:06:04.986Z,51.33
2023-07-05T07:07:04.992Z,50.32
2023-07-05T07:08:04.932Z,50.66
2023-07-05T07:09:04.970Z,52.02
2023-07-05T07:10:04.947Z,50.60
2023-07-05T07:11:04.976Z,50.33
2023-07-05T07:12:04.961Z,50.47
2023-07-05T07:13:04.961Z,50.66
2023-07-05T07:14:06.110Z,51.82
2023-07-05T07:15:04.922Z,50.79
2023-07-05T07:16:04.947Z,52.71
2023-07-05T07:17:04.916Z,51.07
2023-07-05T07:18:04.870Z,50.23
2023-07-05T07:19:04.875Z,50.00
2023-07-05T07:20:04.901Z,50.61
2023-07-05T07:21:04.868Z,50.02
2023-07-05T07:22:04.856Z,50.00
2023-07-05T07:23:04.842Z,50.00
2023-07-05T07:24:04.884Z,51.70
2023-07-05T07:25:04.866Z,51.46
2023-07-05T07:26:04.850Z,50.99
2023-07-05T07:27:04.889Z,51.52
2023-07-05T07:28:04.868Z,52.85
2023-07-05T07:29:04.846Z,50.99
2023-07-05T07:30:04.859Z,49.90
2023-07-05T07:31:04.876Z,50.00
2023-07-05T07:32:05.019Z,50.00
2023-07-05T07:33:04.997Z,50.81
2023-07-05T07:34:04.903Z,53.67
2023-07-05T07:35:04.875Z,51.45
2023-07-05T07:36:04.906Z,50.88
2023-07-05T07:37:04.915Z,51.07
2023-07-05T07:38:04.917Z,51.38
2023-07-05T07:39:04.898Z,50.72
2023-07-05T07:40:04.903Z,53.53
2023-07-05T07:41:04.888Z,52.78
2023-07-05T07:42:04.898Z,50.90
2023-07-05T07:43:04.882Z,52.33
2023-07-05T07:44:04.939Z,50.15
2023-07-05T07:45:04.892Z,50.66
2023-07-05T07:46:04.925Z,50.00
2023-07-05T07:47:04.889Z,51.06
2023-07-05T07:48:04.943Z,50.52
2023-07-05T07:49:04.889Z,51.09
2023-07-05T07:50:04.900Z,50.05
2023-07-05T07:51:04.878Z,50.14
2023-07-05T07:52:04.866Z,52.16
2023-07-05T07:53:04.855Z,50.26
2023-07-05T07:54:04.859Z,51.40
2023-07-05T07:55:04.869Z,53.45
2023-07-05T07:56:04.859Z,51.75
2023-07-05T07:57:04.850Z,50.67
2023-07-05T07:58:04.838Z,51.12
2023-07-05T07:59:04.819Z,50.34
2023-07-05T08:00:04.836Z,53.81
2023-07-05T08:01:04.799Z,52.71
2023-07-05T08:02:04.805Z,53.67
2023-07-05T08:03:04.935Z,51.43
2023-07-05T08:04:04.920Z,52.33
2023-07-05T08:05:05.047Z,50.00
2023-07-05T08:06:04.859Z,51.30
2023-07-05T08:07:04.847Z,50.10
2023-07-05T08:08:04.827Z,50.76
2023-07-05T08:09:04.857Z,52.22
2023-07-05T08:10:04.863Z,50.82
2023-07-05T08:11:04.877Z,50.61
2023-07-05T08:12:04.860Z,50.00
2023-07-05T08:13:04.892Z,50.01
2023-07-05T08:14:04.957Z,51.68
2023-07-05T08:15:04.886Z,51.87
2023-07-05T08:16:04.985Z,53.25
2023-07-05T08:17:04.904Z,52.81
2023-07-05T08:18:04.940Z,49.44
2023-07-05T08:19:04.954Z,53.34
2023-07-05T08:20:04.960Z,51.78
2023-07-05T08:21:04.974Z,51.43
2023-07-05T08:22:05.014Z,50.42
2023-07-05T08:23:04.997Z,51.41
2023-07-05T08:24:24.117Z,50.21
2023-07-05T08:25:05.998Z,50.35
2023-07-05T08:26:04.994Z,49.00
2023-07-05T08:27:05.012Z,45.43
2023-07-05T08:28:04.994Z,45.61
2023-07-05T08:29:04.996Z,39.88
2023-07-05T08:30:04.979Z,50.00
2023-07-05T08:31:05.029Z,51.10
2023-07-05T08:32:04.975Z,54.85
2023-07-05T08:33:04.999Z,54.93
2023-07-05T08:34:04.959Z,56.03
2023-07-05T08:35:04.942Z,53.92
2023-07-05T08:36:04.953Z,54.24
2023-07-05T08:37:04.960Z,50.26
2023-07-05T08:38:04.959Z,53.36
2023-07-05T08:39:05.011Z,52.65
2023-07-05T08:40:05.027Z,50.00
2023-07-05T08:41:05.088Z,50.48
2023-07-05T08:42:05.163Z,50.77
2023-07-05T08:43:05.202Z,51.00
2023-07-05T08:44:05.262Z,50.71
2023-07-05T08:45:05.289Z,54.51
2023-07-05T08:46:05.387Z,56.32
2023-07-05T08:47:05.396Z,57.89
2023-07-05T08:48:05.491Z,60.64
2023-07-05T08:49:05.498Z,60.59
2023-07-05T08:50:17.507Z,60.67
2023-07-05T08:51:14.488Z,60.87
2023-07-05T08:52:06.559Z,60.98
2023-07-05T08:53:05.573Z,59.28
2023-07-05T08:54:05.541Z,48.13
2023-07-05T08:55:05.549Z,43.60
2023-07-05T08:56:05.566Z,44.41
2023-07-05T08:57:05.526Z,50.35
2023-07-05T08:58:05.509Z,51.00
2023-07-05T08:59:05.503Z,50.00
2023-07-05T09:00:05.545Z,52.25
2023-07-05T09:01:05.720Z,54.34
2023-07-05T09:02:05.502Z,56.06
2023-07-05T09:03:05.562Z,57.18
2023-07-05T09:04:05.480Z,57.45
2023-07-05T09:05:05.466Z,54.42
2023-07-05T09:06:05.502Z,58.38
2023-07-05T09:07:05.448Z,61.02
2023-07-05T09:08:05.472Z,63.89
2023-07-05T09:09:05.445Z,63.78
2023-07-05T09:10:05.431Z,65.39
2023-07-05T09:11:05.456Z,68.80
2023-07-05T09:12:05.412Z,70.69
2023-07-05T09:13:05.460Z,73.33
2023-07-05T09:14:05.434Z,72.96
2023-07-05T09:15:05.444Z,67.07
2023-07-05T09:16:05.501Z,72.17
2023-07-05T09:17:05.629Z,64.71
2023-07-05T09:18:05.660Z,67.95
2023-07-05T09:19:05.645Z,68.84
2023-07-05T09:20:05.744Z,70.23
2023-07-05T09:21:05.734Z,72.84
2023-07-05T09:22:05.853Z,71.67
2023-07-05T09:23:05.838Z,68.59
2023-07-05T09:24:05.900Z,70.85
2023-07-05T09:25:05.922Z,69.86
2023-07-05T09:26:05.949Z,70.89
2023-07-05T09:27:06.014Z,74.05
2023-07-05T09:28:06.013Z,78.33
2023-07-05T09:29:06.066Z,87.10
2023-07-05T09:30:06.137Z,84.63
2023-07-05T09:31:06.152Z,88.50
2023-07-05T09:32:06.223Z,89.88
2023-07-05T09:33:06.278Z,89.25
2023-07-05T09:34:06.246Z,88.31
2023-07-05T09:35:06.287Z,88.88
2023-07-05T09:36:06.334Z,89.21
2023-07-05T09:37:06.386Z,97.77
2023-07-05T09:38:06.424Z,96.30
2023-07-05T09:39:06.440Z,95.01
2023-07-05T09:40:06.533Z,93.58
2023-07-05T09:41:06.523Z,88.99
2023-07-05T09:42:06.562Z,89.72
2023-07-05T09:43:06.594Z,91.96
2023-07-05T09:44:06.640Z,96.38
2023-07-05T09:45:06.657Z,101.00
2023-07-05T09:46:06.768Z,100.29
2023-07-05T09:47:06.720Z,97.47
2023-07-05T09:48:06.790Z,91.80
2023-07-05T09:49:06.756Z,90.48
2023-07-05T09:50:06.808Z,87.18
2023-07-05T09:51:06.844Z,84.79
2023-07-05T09:52:06.843Z,85.08
2023-07-05T09:53:06.878Z,88.58
2023-07-05T09:54:06.920Z,90.79
2023-07-05T09:55:06.958Z,93.67
2023-07-05T09:56:06.956Z,95.30
2023-07-05T09:57:07.018Z,95.85
2023-07-05T09:58:07.016Z,97.32
2023-07-05T09:59:07.185Z,100.96
2023-07-05T10:00:07.098Z,96.28
2023-07-05T10:01:07.093Z,76.93
2023-07-05T10:02:07.220Z,66.45
2023-07-05T10:03:07.255Z,65.25
2023-07-05T10:04:07.329Z,78.76
2023-07-05T10:05:07.192Z,85.84
2023-07-05T10:06:07.262Z,87.56
2023-07-05T10:07:07.272Z,91.14
2023-07-05T10:08:07.311Z,92.42
2023-07-05T10:09:07.354Z,95.08
2023-07-05T10:10:07.381Z,95.54
2023-07-05T10:11:07.397Z,94.71
2023-07-05T10:12:07.432Z,95.29
2023-07-05T10:13:07.499Z,95.87
2023-07-05T10:14:07.681Z,97.58
2023-07-05T10:15:07.530Z,97.80
2023-07-05T10:16:07.625Z,96.97
2023-07-05T10:17:08.743Z,97.80
2023-07-05T10:18:07.648Z,97.93
2023-07-05T10:19:07.647Z,96.08
2023-07-05T10:20:07.707Z,94.46
2023-07-05T10:21:07.694Z,94.56
2023-07-05T10:22:07.811Z,93.95
2023-07-05T10:23:07.744Z,93.85
2023-07-05T10:24:07.759Z,94.19
2023-07-05T10:25:07.803Z,92.92
2023-07-05T10:26:07.819Z,89.37
2023-07-05T10:27:07.834Z,86.62
2023-07-05T10:28:07.882Z,87.73
2023-07-05T10:29:07.904Z,81.26
2023-07-05T10:30:07.919Z,84.47
2023-07-05T10:31:07.896Z,80.32
2023-07-05T10:32:08.011Z,82.09
2023-07-05T10:33:07.956Z,84.07
2023-07-05T10:34:07.951Z,81.61
2023-07-05T10:35:08.023Z,81.39
2023-07-05T10:36:08.010Z,79.66
2023-07-05T10:37:08.028Z,79.48
2023-07-05T10:38:08.087Z,80.21
2023-07-05T10:39:08.036Z,80.86
2023-07-05T10:40:08.032Z,80.22
2023-07-05T10:41:08.045Z,81.27
2023-07-05T10:42:08.073Z,84.98
2023-07-05T10:43:08.074Z,82.76
2023-07-05T10:44:08.109Z,83.36
2023-07-05T10:45:08.114Z,85.03
2023-07-05T10:46:08.163Z,84.77
2023-07-05T10:47:10.353Z,84.75
2023-07-05T10:48:08.251Z,81.78
2023-07-05T10:49:08.128Z,81.68
2023-07-05T10:50:08.142Z,83.91
2023-07-05T10:51:08.174Z,85.21
2023-07-05T10:52:08.152Z,84.20
2023-07-05T10:53:08.199Z,83.61
2023-07-05T10:54:08.184Z,82.77
2023-07-05T10:55:08.182Z,82.81
2023-07-05T10:56:08.186Z,84.84
2023-07-05T10:57:08.187Z,81.60
2023-07-05T10:58:08.255Z,80.47
2023-07-05T10:59:08.237Z,78.34
2023-07-05T11:00:21.750Z,75.86
2023-07-05T11:01:09.254Z,75.91
2023-07-05T11:02:08.210Z,73.84
2023-07-05T11:03:08.234Z,75.65
2023-07-05T11:04:08.207Z,76.86
2023-07-05T11:05:08.303Z,78.93
2023-07-05T11:06:08.161Z,80.90
2023-07-05T11:07:08.191Z,83.88
2023-07-05T11:08:08.189Z,81.99
2023-07-05T11:09:09.460Z,81.48
2023-07-05T11:10:08.130Z,84.67
2023-07-05T11:11:08.124Z,88.95
2023-07-05T11:12:08.182Z,91.62
2023-07-05T11:13:08.122Z,91.76
2023-07-05T11:15:08.126Z,99.67
2023-07-05T11:16:08.159Z,105.47
2023-07-05T11:17:08.097Z,116.53
2023-07-05T11:18:08.383Z,125.99
2023-07-05T11:19:08.099Z,125.80
2023-07-05T11:20:08.080Z,123.06
2023-07-05T11:21:08.065Z,120.81
2023-07-05T11:22:08.087Z,124.10
2023-07-05T11:23:08.154Z,154.06
2023-07-05T11:24:08.185Z,158.91
2023-07-05T11:25:08.068Z,172.56
2023-07-05T11:26:08.044Z,200.10
2023-07-05T11:27:08.041Z,205.97
2023-07-05T11:28:08.049Z,200.24
2023-07-05T11:29:07.993Z,199.09
2023-07-05T11:30:08.015Z,199.51
2023-07-05T11:31:08.046Z,200.89
2023-07-05T11:32:08.003Z,201.87
2023-07-05T11:33:08.132Z,200.00
2023-07-05T11:34:07.966Z,198.51
2023-07-05T11:35:08.003Z,197.64
2023-07-05T11:36:07.981Z,193.93
2023-07-05T11:37:07.971Z,198.23
2023-07-05T11:38:07.969Z,200.00
2023-07-05T11:39:07.960Z,198.79
2023-07-05T11:40:07.948Z,200.71
2023-07-05T11:41:07.941Z,197.52
2023-07-05T11:42:07.936Z,198.22
2023-07-05T11:43:07.929Z,200.00
2023-07-05T11:44:07.934Z,200.00
2023-07-05T11:45:07.931Z,200.00
2023-07-05T11:46:07.977Z,199.86
2023-07-05T11:47:07.899Z,199.47
2023-07-05T11:48:07.920Z,198.84
2023-07-05T11:49:07.891Z,199.54
2023-07-05T11:50:07.854Z,199.83
2023-07-05T11:51:19.588Z,200.00
2023-07-05T11:52:08.834Z,200.08
2023-07-05T11:53:07.828Z,200.16
2023-07-05T11:54:07.839Z,200.27
2023-07-05T11:55:07.826Z,200.46
2023-07-05T11:56:07.822Z,200.40
2023-07-05T11:57:07.812Z,198.58
2023-07-05T11:58:07.836Z,199.26
2023-07-05T11:59:07.807Z,198.37
2023-07-05T12:00:07.780Z,198.46
2023-07-05T12:01:07.843Z,198.83
2023-07-05T12:02:07.776Z,197.92
2023-07-05T12:03:07.889Z,198.45
2023-07-05T12:04:09.962Z,198.52
2023-07-05T12:05:07.742Z,198.17
2023-07-05T12:06:07.816Z,197.29
2023-07-05T12:07:07.760Z,197.58
2023-07-05T12:08:07.778Z,196.09
2023-07-05T12:09:07.730Z,195.98
2023-07-05T12:10:07.704Z,195.73
2023-07-05T12:11:07.718Z,197.42
2023-07-05T12:12:07.716Z,198.05
2023-07-05T12:13:07.705Z,200.46
2023-07-05T12:14:07.713Z,198.21
2023-07-05T12:15:07.675Z,197.90
2023-07-05T12:16:07.731Z,197.16
2023-07-05T12:17:07.670Z,199.49
2023-07-05T12:18:07.688Z,198.64
2023-07-05T12:19:07.675Z,197.56
2023-07-05T12:20:07.659Z,196.57
2023-07-05T12:21:07.654Z,193.88
2023-07-05T12:22:07.630Z,192.49
2023-07-05T12:23:07.624Z,190.12
2023-07-05T12:24:07.609Z,187.01
2023-07-05T12:25:07.624Z,184.66
2023-07-05T12:26:07.595Z,182.75
2023-07-05T12:27:07.630Z,182.29
2023-07-05T12:28:07.598Z,179.55
2023-07-05T12:29:07.604Z,177.29
2023-07-05T12:30:07.582Z,177.00
2023-07-05T12:31:07.577Z,175.74
2023-07-05T12:32:07.538Z,174.95
2023-07-05T12:33:07.594Z,173.06
2023-07-05T12:34:07.553Z,173.82
2023-07-05T12:35:07.536Z,173.57
2023-07-05T12:36:07.532Z,172.81
2023-07-05T12:37:07.506Z,172.52
2023-07-05T12:38:07.555Z,172.06
2023-07-05T12:39:07.525Z,170.45
2023-07-05T12:40:07.505Z,171.17
2023-07-05T12:41:07.475Z,169.99
2023-07-05T12:42:07.522Z,169.01
2023-07-05T12:43:07.568Z,168.23
2023-07-05T12:44:07.480Z,167.45
2023-07-05T12:45:07.464Z,166.24
2023-07-05T12:46:07.484Z,166.22
2023-07-05T12:47:07.477Z,165.54
2023-07-05T12:48:07.491Z,165.41
2023-07-05T12:49:07.444Z,163.41
2023-07-05T12:50:07.417Z,162.17
2023-07-05T12:51:07.432Z,162.87
2023-07-05T12:52:07.409Z,162.30
2023-07-05T12:53:07.449Z,161.20
2023-07-05T12:54:07.394Z,161.48
2023-07-05T12:55:07.405Z,159.92
2023-07-05T12:56:07.417Z,159.16
2023-07-05T12:57:07.395Z,158.50
2023-07-05T12:58:07.399Z,157.84
2023-07-05T12:59:10.109Z,156.95
2023-07-05T13:00:08.370Z,157.07
2023-07-05T13:01:07.373Z,157.00
2023-07-05T13:02:07.340Z,155.70
2023-07-05T13:03:07.386Z,155.04
2023-07-05T13:04:07.429Z,153.49
2023-07-05T13:05:08.155Z,152.11
2023-07-05T13:06:07.316Z,152.58
2023-07-05T13:07:07.321Z,152.58
2023-07-05T13:08:07.329Z,153.37
2023-07-05T13:09:07.866Z,153.26
2023-07-05T13:10:07.523Z,152.79
2023-07-05T13:11:07.264Z,152.31
2023-07-05T13:12:07.268Z,151.53
2023-07-05T13:13:07.288Z,150.82
2023-07-05T13:14:07.400Z,150.74
2023-07-05T13:15:07.248Z,151.41
2023-07-05T13:16:07.318Z,150.35
2023-07-05T13:17:07.247Z,148.35
2023-07-05T13:18:07.261Z,147.45
2023-07-05T13:19:07.192Z,147.06
2023-07-05T13:20:07.191Z,146.05
2023-07-05T13:21:07.233Z,145.82
2023-07-05T13:22:07.221Z,145.74
2023-07-05T13:23:07.268Z,145.41
2023-07-05T13:24:07.183Z,145.36
2023-07-05T13:25:07.174Z,145.36
2023-07-05T13:26:07.164Z,144.37
2023-07-05T13:27:07.160Z,144.58
2023-07-05T13:28:07.154Z,143.07
2023-07-05T13:29:07.207Z,143.91
2023-07-05T13:30:07.128Z,143.55
2023-07-05T13:31:07.179Z,143.02
2023-07-05T13:32:07.135Z,141.44
2023-07-05T13:33:07.239Z,142.42
2023-07-05T13:34:07.135Z,142.68
2023-07-05T13:35:07.204Z,141.97
2023-07-05T13:36:07.161Z,140.73
2023-07-05T13:37:07.151Z,141.57
2023-07-05T13:38:07.156Z,141.77
2023-07-05T13:39:07.185Z,140.48
2023-07-05T13:40:07.183Z,140.33
2023-07-05T13:41:07.201Z,139.80
2023-07-05T13:42:07.182Z,138.14
2023-07-05T13:43:07.194Z,137.90
2023-07-05T13:44:07.204Z,137.34
2023-07-05T13:45:07.187Z,136.31
2023-07-05T13:46:07.259Z,135.89
2023-07-05T13:47:07.231Z,136.58
2023-07-05T13:48:07.266Z,135.42
2023-07-05T13:49:07.203Z,135.84
2023-07-05T13:50:07.728Z,133.15
2023-07-05T13:51:07.228Z,133.81
2023-07-05T13:52:07.224Z,132.53
2023-07-05T13:53:07.248Z,134.08
2023-07-05T13:54:07.276Z,133.78
2023-07-05T13:55:07.281Z,133.32
2023-07-05T13:56:07.267Z,133.81
2023-07-05T13:57:07.321Z,133.15
2023-07-05T13:58:07.317Z,132.31
2023-07-05T13:59:07.280Z,133.50
2023-07-05T14:00:07.319Z,131.80
2023-07-05T14:01:07.340Z,132.00
2023-07-05T14:02:07.348Z,131.52
2023-07-05T14:03:07.454Z,132.18
2023-07-05T14:04:07.339Z,131.33
2023-07-05T14:05:07.326Z,130.74
2023-07-05T14:06:07.370Z,130.31
2023-07-05T14:07:07.372Z,129.83
2023-07-05T14:08:07.509Z,130.26
2023-07-05T14:09:07.381Z,128.95
2023-07-05T14:10:07.424Z,129.76
2023-07-05T14:11:07.374Z,128.81
2023-07-05T14:12:07.403Z,128.66
2023-07-05T14:13:07.426Z,127.33
2023-07-05T14:14:07.443Z,127.38
2023-07-05T14:15:07.450Z,127.47
2023-07-05T14:16:07.502Z,128.45
2023-07-05T14:17:07.472Z,127.19
2023-07-05T14:18:07.527Z,127.11
2023-07-05T14:19:07.504Z,126.68
2023-07-05T14:20:07.533Z,126.15
2023-07-05T14:21:07.498Z,125.67
2023-07-05T14:22:07.515Z,125.14
2023-07-05T14:23:07.538Z,125.08
2023-07-05T14:24:07.558Z,124.55
2023-07-05T14:25:07.533Z,125.60
2023-07-05T14:26:07.558Z,124.76
2023-07-05T14:27:07.587Z,126.11
2023-07-05T14:28:07.625Z,125.47
2023-07-05T14:29:07.658Z,125.31
2023-07-05T14:30:07.674Z,125.47
2023-07-05T14:31:07.640Z,124.40
2023-07-05T14:32:07.656Z,124.17
2023-07-05T14:33:07.683Z,125.14
2023-07-05T14:34:07.661Z,125.68
2023-07-05T14:35:07.678Z,124.88
2023-07-05T14:36:07.704Z,125.61
2023-07-05T14:37:07.740Z,124.91
2023-07-05T14:38:07.737Z,125.01
2023-07-05T14:39:07.749Z,123.57
2023-07-05T14:40:07.761Z,125.69
2023-07-05T14:41:07.763Z,125.52
2023-07-05T14:42:07.796Z,125.78
2023-07-05T14:43:07.802Z,124.48
2023-07-05T14:44:07.795Z,124.17
2023-07-05T14:45:07.802Z,123.13
2023-07-05T14:46:07.846Z,122.26
2023-07-05T14:47:07.903Z,120.86
2023-07-05T14:48:07.932Z,122.42
2023-07-05T14:49:07.867Z,122.74
2023-07-05T14:50:07.863Z,121.97
2023-07-05T14:51:07.871Z,121.58
2023-07-05T14:52:07.894Z,118.93
2023-07-05T14:53:07.931Z,118.18
2023-07-05T14:54:07.897Z,119.15
2023-07-05T14:55:07.940Z,118.06
2023-07-05T14:56:07.950Z,116.79
2023-07-05T14:57:07.938Z,117.12
2023-07-05T14:58:07.975Z,116.98
2023-07-05T14:59:07.970Z,115.95
2023-07-05T15:00:07.998Z,115.17
2023-07-05T15:01:08.037Z,113.91
2023-07-05T15:02:07.993Z,113.23
2023-07-05T15:03:08.074Z,113.41
2023-07-05T15:04:08.080Z,112.06
2023-07-05T15:05:08.061Z,110.48
2023-07-05T15:06:08.027Z,111.17
2023-07-05T15:07:08.017Z,110.59
2023-07-05T15:08:08.039Z,110.29
2023-07-05T15:09:08.031Z,110.74
2023-07-05T15:10:08.051Z,111.27
2023-07-05T15:11:08.013Z,111.43
2023-07-05T15:12:08.048Z,111.88
2023-07-05T15:13:08.063Z,111.19
2023-07-05T15:14:08.094Z,111.29
2023-07-05T15:15:08.048Z,111.01
2023-07-05T15:16:08.127Z,108.51
2023-07-05T15:17:08.062Z,110.78
2023-07-05T15:18:08.136Z,111.23
2023-07-05T15:19:08.125Z,110.16
2023-07-05T15:20:08.191Z,108.79
2023-07-05T15:21:08.151Z,109.18
2023-07-05T15:22:08.160Z,108.34
2023-07-05T15:23:08.255Z,107.90
2023-07-05T15:24:08.201Z,108.32
2023-07-05T15:25:08.189Z,107.86
2023-07-05T15:26:08.243Z,106.97
2023-07-05T15:27:08.249Z,107.15
2023-07-05T15:28:08.349Z,107.55
2023-07-05T15:29:08.240Z,107.91
2023-07-05T15:30:08.243Z,106.82
2023-07-05T15:31:08.314Z,107.45
2023-07-05T15:32:08.232Z,106.68
2023-07-05T15:33:08.303Z,107.14
2023-07-05T15:34:08.259Z,107.35
2023-07-05T15:35:08.248Z,105.05
2023-07-05T15:36:08.269Z,105.16
2023-07-05T15:37:08.291Z,105.18
2023-07-05T15:38:08.303Z,104.88
2023-07-05T15:39:08.347Z,104.87
2023-07-05T15:40:08.344Z,105.69
2023-07-05T15:41:08.392Z,105.99
2023-07-05T15:42:08.382Z,105.20
2023-07-05T15:43:08.375Z,103.46
2023-07-05T15:44:08.393Z,103.80
2023-07-05T15:45:08.428Z,104.35
2023-07-05T15:46:10.984Z,104.55
2023-07-05T15:47:08.540Z,105.48
2023-07-05T15:48:08.507Z,103.31
2023-07-05T15:49:08.381Z,104.56
2023-07-05T15:50:08.375Z,103.16
2023-07-05T15:51:08.391Z,102.27
2023-07-05T15:52:08.368Z,102.96
2023-07-05T15:53:08.369Z,102.35
2023-07-05T15:54:08.352Z,100.94
2023-07-05T15:55:08.321Z,101.24
2023-07-05T15:56:08.352Z,101.87
2023-07-05T15:57:08.345Z,99.79
2023-07-05T15:58:08.310Z,101.07
2023-07-05T15:59:08.292Z,100.32
2023-07-05T16:00:08.339Z,99.78
2023-07-05T16:01:08.385Z,99.70
2023-07-05T16:02:08.279Z,99.14
2023-07-05T16:03:11.710Z,98.41
2023-07-05T16:04:08.302Z,98.56
2023-07-05T16:05:08.284Z,98.80
2023-07-05T16:06:08.267Z,97.97
2023-07-05T16:07:08.261Z,99.02
2023-07-05T16:08:08.274Z,99.32
2023-07-05T16:09:08.250Z,98.25
2023-07-05T16:10:08.230Z,98.59
2023-07-05T16:11:08.222Z,97.44
2023-07-05T16:12:08.213Z,97.23
2023-07-05T16:13:08.240Z,96.76
2023-07-05T16:14:08.202Z,97.51
2023-07-05T16:15:08.195Z,97.41
2023-07-05T16:16:08.189Z,96.39
2023-07-05T16:17:08.229Z,96.69
2023-07-05T16:18:08.275Z,96.47
2023-07-05T16:19:08.314Z,96.10
2023-07-05T16:20:08.176Z,96.41
2023-07-05T16:21:08.160Z,97.14
2023-07-05T16:22:08.175Z,97.66
2023-07-05T16:23:08.150Z,96.80
2023-07-05T16:24:08.121Z,97.48
2023-07-05T16:25:08.124Z,97.11
2023-07-05T16:26:08.161Z,97.22
2023-07-05T16:27:08.116Z,97.29
2023-07-05T16:28:08.099Z,96.00
2023-07-05T16:29:08.120Z,96.12
2023-07-05T16:30:08.113Z,95.86
2023-07-05T16:31:08.167Z,95.00
2023-07-05T16:32:08.065Z,93.94
2023-07-05T16:33:08.102Z,94.74
2023-07-05T16:34:08.057Z,95.09
2023-07-05T16:35:08.075Z,94.58
2023-07-05T16:36:08.071Z,94.97
2023-07-05T16:37:08.051Z,94.28
2023-07-05T16:38:08.049Z,94.71
2023-07-05T16:39:08.019Z,94.89
2023-07-05T16:40:08.027Z,94.38
2023-07-05T16:41:07.991Z,94.12
2023-07-05T16:42:08.006Z,93.95
2023-07-05T16:43:08.020Z,93.94
2023-07-05T16:44:07.987Z,94.70
2023-07-05T16:45:07.969Z,94.62
2023-07-05T16:46:08.000Z,95.89
2023-07-05T16:47:07.962Z,94.53
2023-07-05T16:48:07.964Z,94.28
2023-07-05T16:49:07.970Z,93.86
2023-07-05T16:50:07.956Z,93.32
2023-07-05T16:51:07.966Z,94.98
2023-07-05T16:52:07.923Z,94.29
2023-07-05T16:53:07.907Z,92.78
2023-07-05T16:54:08.018Z,92.80
2023-07-05T16:55:07.938Z,93.98
2023-07-05T16:56:07.932Z,93.30
2023-07-05T16:57:07.906Z,93.26
2023-07-05T16:58:07.903Z,92.77
2023-07-05T16:59:07.876Z,92.88
2023-07-05T17:00:07.881Z,92.31
2023-07-05T17:01:07.851Z,91.54
2023-07-05T17:02:07.894Z,91.93
2023-07-05T17:03:07.965Z,91.92
2023-07-05T17:04:07.987Z,90.99
2023-07-05T17:05:07.858Z,91.41
2023-07-05T17:06:07.834Z,90.60
2023-07-05T17:07:07.854Z,90.27
2023-07-05T17:08:07.833Z,88.68
2023-07-05T17:09:07.803Z,88.92
2023-07-05T17:10:07.809Z,87.53
2023-07-05T17:11:07.799Z,87.74
2023-07-05T17:12:07.770Z,88.33
2023-07-05T17:13:07.791Z,88.58
2023-07-05T17:14:07.837Z,88.93
2023-07-05T17:15:07.771Z,87.47
2023-07-05T17:16:07.798Z,86.56
2023-07-05T17:17:07.768Z,86.22
2023-07-05T17:18:07.831Z,86.09
2023-07-05T17:19:07.726Z,85.43
2023-07-05T17:20:07.752Z,83.19
2023-07-05T17:21:07.735Z,83.32
2023-07-05T17:22:07.697Z,82.40
2023-07-05T17:23:07.691Z,83.05
2023-07-05T17:24:07.707Z,82.79
2023-07-05T17:25:07.669Z,82.75
2023-07-05T17:26:07.838Z,81.92
2023-07-05T17:27:07.747Z,82.53
2023-07-05T17:28:08.103Z,81.41
2023-07-05T17:29:07.630Z,81.64
2023-07-05T17:30:07.667Z,81.53
2023-07-05T17:31:07.664Z,81.22
2023-07-05T17:32:07.626Z,81.92
2023-07-05T17:33:07.684Z,80.79
2023-07-05T17:34:07.641Z,81.53
2023-07-05T17:35:07.622Z,80.11
2023-07-05T17:36:07.595Z,81.46
2023-07-05T17:37:07.605Z,80.16
2023-07-05T17:38:07.592Z,78.36
2023-07-05T17:39:07.588Z,79.30
2023-07-05T17:40:07.956Z,79.43
2023-07-05T17:41:07.600Z,81.31
2023-07-05T17:42:07.604Z,78.52
2023-07-05T17:43:07.628Z,80.01
2023-07-05T17:44:07.604Z,80.34
2023-07-05T17:45:07.615Z,79.58
2023-07-05T17:46:07.673Z,78.06
2023-07-05T17:47:07.616Z,79.55
2023-07-05T17:48:07.669Z,78.34
2023-07-05T17:49:07.654Z,79.52
2023-07-05T17:50:07.698Z,78.75
2023-07-05T17:51:07.683Z,78.23
2023-07-05T17:52:07.677Z,77.25
2023-07-05T17:53:07.734Z,76.80
2023-07-05T17:54:07.738Z,77.99
2023-07-05T17:55:07.752Z,79.04
2023-07-05T17:56:07.748Z,78.09
2023-07-05T17:57:07.739Z,77.25
2023-07-05T17:58:07.783Z,77.61
2023-07-05T17:59:07.770Z,77.17
2023-07-05T18:00:07.808Z,76.37
2023-07-05T18:01:07.836Z,77.41
2023-07-05T18:02:07.833Z,76.38
2023-07-05T18:03:07.910Z,77.13
2023-07-05T18:04:07.815Z,76.52
2023-07-05T18:05:07.845Z,76.73
2023-07-05T18:06:07.855Z,76.29
2023-07-05T18:07:07.860Z,76.93
2023-07-05T18:08:07.896Z,75.24
2023-07-05T18:09:07.854Z,77.01
2023-07-05T18:10:07.950Z,75.73
2023-07-05T18:11:07.905Z,74.73
2023-07-05T18:12:07.907Z,73.89
2023-07-05T18:13:07.929Z,75.99
2023-07-05T18:14:08.035Z,74.08
2023-07-05T18:15:07.973Z,75.28
2023-07-05T18:16:08.063Z,75.06
2023-07-05T18:17:08.003Z,75.34
2023-07-05T18:18:08.037Z,74.04
2023-07-05T18:19:08.025Z,75.25
2023-07-05T18:20:08.043Z,76.07
2023-07-05T18:21:08.038Z,74.11
2023-07-05T18:22:08.045Z,75.52
2023-07-05T18:23:08.073Z,74.34
2023-07-05T18:24:08.112Z,74.30
2023-07-05T18:25:08.098Z,73.74
2023-07-05T18:26:08.149Z,73.14
2023-07-05T18:27:08.154Z,72.46
2023-07-05T18:28:08.171Z,74.40
2023-07-05T18:29:08.169Z,74.59
2023-07-05T18:30:08.179Z,72.76
2023-07-05T18:31:08.223Z,74.12
2023-07-05T18:32:08.243Z,74.31
2023-07-05T18:33:08.297Z,74.58
2023-07-05T18:34:08.244Z,74.24
2023-07-05T18:35:08.262Z,73.22
2023-07-05T18:36:08.311Z,74.39
2023-07-05T18:37:08.297Z,75.13
2023-07-05T18:38:08.312Z,73.84
2023-07-05T18:39:08.350Z,73.45
2023-07-05T18:40:08.544Z,73.62
2023-07-05T18:41:08.356Z,75.60
2023-07-05T18:42:08.398Z,74.88
2023-07-05T18:43:08.397Z,73.36
2023-07-05T18:44:08.426Z,71.80
2023-07-05T18:45:08.441Z,71.14
2023-07-05T18:46:08.479Z,70.31
2023-07-05T18:47:08.520Z,72.15
2023-07-05T18:48:08.494Z,72.06
2023-07-05T18:49:08.523Z,72.59
2023-07-05T18:50:08.522Z,70.96
2023-07-05T18:51:08.528Z,71.03
2023-07-05T18:52:08.585Z,71.35
2023-07-05T18:53:08.569Z,70.79
2023-07-05T18:54:08.570Z,70.12